Time;durP1;ratioP1;P1;durP2;ratioP2;P2;SDS_P1;SDS_P2;PMS_P1;PMS_P2;Temp;Humidity;BMP_temperature;BMP_pressure;BME280_temperature;BME280_humidity;BME280_pressure;Samples;Min_cycle;Max_cycle;Signal;HPM_P1;HPM_P2
2024/03/23 00:02:07;;;;;;;39.43;10.07;;;6.70;91.10;;;;;;5115329;28;20214;-86
2024/03/23 00:04:33;;;;;;;34.83;9.47;;;6.70;91.00;;;;;;5115367;28;20182;-87
2024/03/23 00:07:00;;;;;;;38.57;15.47;;;6.80;90.90;;;;;;5116546;28;20645;-86
2024/03/23 00:09:26;;;;;;;41.50;14.73;;;6.80;91.00;;;;;;5115072;28;20239;-85
2024/03/23 00:11:53;;;;;;;31.40;13.40;;;6.70;91.00;;;;;;5115064;28;20200;-86
2024/03/23 00:14:19;;;;;;;34.83;14.50;;;6.70;91.00;;;;;;5115184;28;20197;-86
2024/03/23 00:16:45;;;;;;;46.47;15.10;;;6.70;91.20;;;;;;5116376;28;20582;-86
2024/03/23 00:19:12;;;;;;;36.10;13.70;;;6.60;91.40;;;;;;5115063;28;20178;-85
2024/03/23 00:21:40;;;;;;;42.23;14.33;;;6.60;91.40;;;;;;5115064;28;20209;-86
2024/03/23 00:24:11;;;;;;;39.03;14.37;;;6.60;91.40;;;;;;5115160;28;20177;-86
2024/03/23 00:26:37;;;;;;;38.87;15.80;;;6.70;91.40;;;;;;5116453;28;20697;-86
2024/03/23 00:29:04;;;;;;;42.23;14.10;;;6.60;91.50;;;;;;5116853;28;20174;-86
2024/03/23 00:31:30;;;;;;;42.10;14.37;;;6.60;91.60;;;;;;5115979;28;20213;-85
2024/03/23 00:33:57;;;;;;;41.40;13.97;;;6.60;91.60;;;;;;5116176;28;20173;-86
2024/03/23 00:36:23;;;;;;;41.47;14.80;;;6.50;91.70;;;;;;5114837;28;20549;-86
2024/03/23 00:38:50;;;;;;;38.57;13.60;;;6.60;91.80;;;;;;5114895;28;20182;-85
2024/03/23 00:41:16;;;;;;;43.73;15.83;;;6.60;91.70;;;;;;5115848;28;20641;-86
2024/03/23 00:43:43;;;;;;;38.30;14.57;;;6.50;91.70;;;;;;5116137;28;20181;-86
2024/03/23 00:46:09;;;;;;;37.30;14.63;;;6.50;91.80;;;;;;5114685;28;20182;-86
2024/03/23 00:48:36;;;;;;;40.67;15.50;;;6.40;91.90;;;;;;5115924;28;20174;-86
2024/03/23 00:51:02;;;;;;;33.63;13.67;;;6.40;92.00;;;;;;5113734;28;20722;-86
2024/03/23 00:53:28;;;;;;;41.80;14.37;;;6.40;92.10;;;;;;5115878;27;20166;-85
2024/03/23 00:55:54;;;;;;;40.30;13.97;;;6.40;92.10;;;;;;5114357;28;20669;-86
2024/03/23 00:58:19;;;;;;;34.80;13.10;;;6.30;92.20;;;;;;5114313;28;20178;-86
2024/03/23 01:00:45;;;;;;;43.73;13.33;;;6.30;92.20;;;;;;5114174;28;20231;-86
2024/03/23 01:03:10;;;;;;;40.27;13.60;;;6.40;92.20;;;;;;5115449;28;20198;-86
2024/03/23 01:05:36;;;;;;;32.23;13.47;;;6.40;92.20;;;;;;5115281;28;20251;-85
2024/03/23 01:08:02;;;;;;;36.27;13.67;;;6.40;92.10;;;;;;5115644;28;20161;-86
2024/03/23 01:10:27;;;;;;;39.57;13.40;;;6.30;92.20;;;;;;5114043;28;20669;-86
2024/03/23 01:12:53;;;;;;;31.73;12.90;;;6.30;92.20;;;;;;5115259;28;20647;-86
2024/03/23 01:15:18;;;;;;;36.27;12.83;;;6.40;92.20;;;;;;5115184;28;20178;-86
2024/03/23 01:17:44;;;;;;;46.87;15.30;;;6.40;92.20;;;;;;5115319;28;20170;-86
2024/03/23 01:20:10;;;;;;;43.07;14.87;;;6.30;92.10;;;;;;5114042;28;20668;-86
2024/03/23 01:22:35;;;;;;;39.90;14.33;;;6.40;92.20;;;;;;5114982;28;20185;-86
2024/03/23 01:25:01;;;;;;;37.07;13.63;;;6.30;92.20;;;;;;5115402;28;20177;-86
2024/03/23 01:27:27;;;;;;;40.50;13.80;;;6.30;92.20;;;;;;5115255;28;20174;-86
2024/03/23 01:29:52;;;;;;;31.37;10.23;;;6.30;92.30;;;;;;5114798;28;20570;-85
2024/03/23 01:32:18;;;;;;;36.70;10.23;;;6.30;92.40;;;;;;5115003;28;20194;-86
2024/03/23 01:34:44;;;;;;;37.03;10.07;;;6.30;92.50;;;;;;5114903;28;20201;-85
2024/03/23 01:37:10;;;;;;;28.90;9.03;;;6.20;92.50;;;;;;5113665;28;20541;-86
2024/03/23 01:39:35;;;;;;;41.80;10.80;;;6.20;92.70;;;;;;5113468;28;20521;-86
2024/03/23 01:42:01;;;;;;;37.10;9.17;;;6.20;92.70;;;;;;5114871;28;20194;-86
2024/03/23 01:44:26;;;;;;;40.20;9.93;;;6.20;92.70;;;;;;5113382;28;20590;-85
2024/03/23 01:46:52;;;;;;;30.23;8.07;;;6.20;92.70;;;;;;5113417;28;20177;-86
2024/03/23 01:49:17;;;;;;;37.73;9.13;;;6.20;92.70;;;;;;5113630;28;20178;-86
2024/03/23 01:51:44;;;;;;;32.77;9.23;;;6.20;92.70;;;;;;5114314;28;20206;-86
2024/03/23 01:54:10;;;;;;;44.20;10.07;;;6.20;92.70;;;;;;5114497;28;20166;-86
2024/03/23 01:56:36;;;;;;;36.27;9.97;;;6.20;92.60;;;;;;5113257;28;20174;-85
2024/03/23 01:59:03;;;;;;;41.57;10.47;;;6.20;92.60;;;;;;5114480;28;20177;-86
2024/03/23 02:01:28;;;;;;;37.67;9.70;;;6.10;92.60;;;;;;5114158;28;20209;-86
2024/03/23 02:03:54;;;;;;;31.77;10.33;;;6.20;92.60;;;;;;5112510;28;20174;-86
2024/03/23 02:06:19;;;;;;;39.87;9.83;;;6.20;92.50;;;;;;5114107;28;20614;-87
2024/03/23 02:08:45;;;;;;;39.83;9.30;;;6.10;92.60;;;;;;5114328;28;20252;-86
2024/03/23 02:11:10;;;;;;;36.27;9.67;;;6.20;92.60;;;;;;5112874;28;20221;-86
2024/03/23 02:13:36;;;;;;;49.67;10.10;;;6.10;92.60;;;;;;5114577;28;20177;-86
2024/03/23 02:16:02;;;;;;;41.00;8.80;;;6.20;92.60;;;;;;5114209;28;20174;-87
2024/03/23 02:18:27;;;;;;;35.50;9.60;;;6.10;92.60;;;;;;5114380;28;20170;-85
2024/03/23 02:20:53;;;;;;;36.50;10.37;;;6.10;92.60;;;;;;5112908;28;20185;-86
2024/03/23 02:23:18;;;;;;;41.57;10.03;;;6.20;92.60;;;;;;5112789;28;20197;-85
2024/03/23 02:25:44;;;;;;;35.07;10.63;;;6.10;92.60;;;;;;5114192;28;20261;-86
2024/03/23 02:28:10;;;;;;;22.97;10.00;;;6.00;92.60;;;;;;5114293;28;20174;-86
2024/03/23 02:30:36;;;;;;;38.00;9.30;;;6.10;92.50;;;;;;5114144;28;20193;-86
2024/03/23 02:33:02;;;;;;;30.60;8.70;;;6.10;92.40;;;;;;5115177;28;20548;-85
2024/03/23 02:35:28;;;;;;;31.93;8.63;;;6.10;92.40;;;;;;5113114;28;20170;-87
2024/03/23 02:37:54;;;;;;;33.57;9.53;;;6.10;92.30;;;;;;5112562;28;20224;-85
2024/03/23 02:40:20;;;;;;;44.13;13.83;;;6.10;92.40;;;;;;5112481;28;20178;-86
2024/03/23 02:42:46;;;;;;;46.00;14.07;;;6.00;92.30;;;;;;5112413;28;20696;-86
2024/03/23 02:45:11;;;;;;;32.97;13.37;;;6.00;92.40;;;;;;5113728;28;20166;-86
2024/03/23 02:47:37;;;;;;;42.87;15.13;;;6.00;92.40;;;;;;5112427;28;20679;-85
2024/03/23 02:50:04;;;;;;;36.17;13.20;;;6.00;92.40;;;;;;5112185;28;20599;-85
2024/03/23 02:52:30;;;;;;;31.77;13.43;;;6.00;92.50;;;;;;5112235;28;20217;-85
2024/03/23 02:54:55;;;;;;;35.77;12.07;;;6.00;92.40;;;;;;5113673;28;20223;-85
2024/03/23 02:57:21;;;;;;;39.87;14.07;;;6.10;92.30;;;;;;5112287;28;20174;-85
2024/03/23 02:59:46;;;;;;;34.73;12.97;;;6.00;92.20;;;;;;5112215;28;20223;-86
2024/03/23 03:02:13;;;;;;;39.00;14.60;;;6.00;92.20;;;;;;5113459;28;20219;-86
2024/03/23 03:04:38;;;;;;;41.27;14.23;;;6.00;92.10;;;;;;5112353;28;20554;-85
2024/03/23 03:07:04;;;;;;;38.90;14.93;;;6.00;91.90;;;;;;5113297;28;20189;-85
2024/03/23 03:09:30;;;;;;;45.53;14.27;;;6.00;91.90;;;;;;5113585;28;20178;-85
2024/03/23 03:11:55;;;;;;;39.80;15.33;;;6.00;91.80;;;;;;5113363;28;20206;-86
2024/03/23 03:14:21;;;;;;;36.57;13.97;;;6.00;91.80;;;;;;5115433;28;20169;-86
2024/03/23 03:16:46;;;;;;;45.23;17.23;;;6.00;91.70;;;;;;5117331;28;20323;-86
2024/03/23 03:19:12;;;;;;;31.93;12.93;;;6.00;91.80;;;;;;5117541;28;20170;-86
2024/03/23 03:21:37;;;;;;;38.17;14.87;;;6.00;91.80;;;;;;5117183;28;20198;-86
2024/03/23 03:24:06;;;;;;;38.07;14.80;;;6.00;91.70;;;;;;5117661;28;20177;-87
2024/03/23 03:26:31;;;;;;;35.30;15.27;;;6.00;91.70;;;;;;5117242;28;20227;-86
2024/03/23 03:28:57;;;;;;;30.50;14.30;;;6.00;91.80;;;;;;5117748;28;20572;-86
2024/03/23 03:31:22;;;;;;;42.73;15.17;;;6.00;91.90;;;;;;5115756;28;20724;-86
2024/03/23 03:33:50;;;;;;;47.83;15.60;;;6.00;92.00;;;;;;5115953;28;20174;-86
2024/03/23 03:36:15;;;;;;;39.83;15.03;;;5.90;92.00;;;;;;5117001;28;20166;-86
2024/03/23 03:38:41;;;;;;;35.67;13.97;;;5.90;92.00;;;;;;5117473;28;20192;-86
2024/03/23 03:41:06;;;;;;;41.30;14.73;;;5.90;92.20;;;;;;5116982;28;20705;-86
2024/03/23 03:43:32;;;;;;;38.43;14.13;;;5.90;92.20;;;;;;5116154;28;20284;-86
2024/03/23 03:45:59;;;;;;;37.03;14.77;;;5.90;92.30;;;;;;5116877;28;20197;-86
2024/03/23 03:48:25;;;;;;;33.90;13.90;;;5.90;92.30;;;;;;5117077;28;20174;-86
2024/03/23 03:50:52;;;;;;;39.07;15.80;;;5.90;92.30;;;;;;5117093;28;20204;-87
2024/03/23 03:53:18;;;;;;;36.50;14.07;;;5.90;92.30;;;;;;5115575;28;20285;-86
2024/03/23 03:55:43;;;;;;;40.23;14.80;;;5.90;92.30;;;;;;5115678;28;20196;-86
2024/03/23 03:58:09;;;;;;;34.03;15.33;;;5.90;92.30;;;;;;5116835;28;20661;-86
2024/03/23 04:00:35;;;;;;;33.50;12.53;;;5.90;92.30;;;;;;5116707;28;20585;-86
2024/03/23 04:03:01;;;;;;;27.97;8.47;;;5.90;92.30;;;;;;5115564;28;20197;-86
2024/03/23 04:05:26;;;;;;;29.00;9.73;;;5.80;92.40;;;;;;5116783;28;20174;-86
2024/03/23 04:07:52;;;;;;;30.93;9.30;;;5.80;92.40;;;;;;5117103;28;20212;-86
2024/03/23 04:10:17;;;;;;;32.60;9.43;;;5.80;92.40;;;;;;5115448;28;20296;-86
2024/03/23 04:12:44;;;;;;;25.23;9.33;;;5.90;92.30;;;;;;5116724;28;20242;-85
2024/03/23 04:15:10;;;;;;;28.53;9.13;;;5.80;92.10;;;;;;5115640;28;20599;-86
2024/03/23 04:17:35;;;;;;;33.03;9.10;;;5.90;92.00;;;;;;5115543;28;20264;-85
2024/03/23 04:20:03;;;;;;;26.00;8.10;;;5.80;91.80;;;;;;5115508;28;20265;-89
2024/03/23 04:22:29;;;;;;;31.33;9.60;;;5.80;91.80;;;;;;5116716;28;20193;-84
2024/03/23 04:24:55;;;;;;;43.60;10.17;;;5.80;91.70;;;;;;5116219;28;20197;-85
2024/03/23 04:27:20;;;;;;;39.83;10.00;;;5.80;91.90;;;;;;5115129;28;20668;-88
2024/03/23 04:29:50;;;;;;;31.33;8.77;;;5.80;91.90;;;;;;5116853;28;20170;-87
2024/03/23 04:32:16;;;;;;;25.53;9.20;;;5.80;91.90;;;;;;5115437;28;20198;-87
2024/03/23 04:34:43;;;;;;;32.13;9.80;;;5.70;92.00;;;;;;5115296;28;20174;-87
2024/03/23 04:37:09;;;;;;;34.30;11.13;;;5.70;92.00;;;;;;5116651;28;20644;-87
2024/03/23 04:39:35;;;;;;;38.53;9.77;;;5.70;92.10;;;;;;5115270;28;20230;-86
2024/03/23 04:42:01;;;;;;;38.13;9.77;;;5.70;92.10;;;;;;5115390;28;20684;-86
2024/03/23 04:44:26;;;;;;;26.17;8.67;;;5.70;92.00;;;;;;5116873;28;20173;-87
2024/03/23 04:46:52;;;;;;;31.60;9.50;;;5.70;91.90;;;;;;5115148;28;20177;-86
2024/03/23 04:49:17;;;;;;;33.23;9.37;;;5.70;91.90;;;;;;5116670;28;20182;-86
2024/03/23 04:51:45;;;;;;;31.03;8.90;;;5.70;91.90;;;;;;5116284;27;20560;-86
2024/03/23 04:54:12;;;;;;;29.43;9.77;;;5.70;92.10;;;;;;5116471;28;20170;-87
2024/03/23 04:56:37;;;;;;;33.03;9.03;;;5.70;92.10;;;;;;5114831;28;20177;-86
2024/03/23 04:59:04;;;;;;;31.87;8.67;;;5.70;92.20;;;;;;5116255;28;20561;-87
2024/03/23 05:01:30;;;;;;;38.67;10.43;;;5.70;92.20;;;;;;5116239;28;20189;-86
2024/03/23 05:03:57;;;;;;;32.53;10.43;;;5.70;92.20;;;;;;5114782;28;20589;-86
2024/03/23 05:06:23;;;;;;;40.47;9.83;;;5.60;92.10;;;;;;5114746;28;20363;-86
2024/03/23 05:08:49;;;;;;;32.77;10.40;;;5.50;92.20;;;;;;5116553;28;20177;-86
2024/03/23 05:11:15;;;;;;;41.10;15.17;;;5.50;92.30;;;;;;5114928;28;20197;-87
2024/03/23 05:13:41;;;;;;;35.67;14.33;;;5.60;92.30;;;;;;5114722;28;20241;-86
2024/03/23 05:16:07;;;;;;;37.67;14.60;;;5.50;92.30;;;;;;5116128;28;20249;-88
2024/03/23 05:18:32;;;;;;;40.30;17.13;;;5.50;92.30;;;;;;5116321;28;20540;-87
2024/03/23 05:20:59;;;;;;;39.80;15.47;;;5.50;92.30;;;;;;5114767;28;20181;-86
2024/03/23 05:23:25;;;;;;;43.67;15.73;;;5.50;92.30;;;;;;5114634;28;20271;-86
2024/03/23 05:25:51;;;;;;;36.27;14.03;;;5.50;92.30;;;;;;5115984;28;20174;-87
2024/03/23 05:28:17;;;;;;;35.43;13.87;;;5.50;92.40;;;;;;5114447;28;20181;-86
2024/03/23 05:30:43;;;;;;;37.60;14.23;;;5.50;92.40;;;;;;5115492;28;20189;-86
2024/03/23 05:33:09;;;;;;;36.33;13.87;;;5.50;92.40;;;;;;5115584;27;20753;-86
2024/03/23 05:35:34;;;;;;;35.17;14.17;;;5.40;92.30;;;;;;5115786;28;20645;-88
2024/03/23 05:38:00;;;;;;;34.40;14.03;;;5.50;92.30;;;;;;5115665;28;20574;-87
2024/03/23 05:40:26;;;;;;;29.53;13.60;;;5.50;92.30;;;;;;5115716;28;20252;-86
2024/03/23 05:42:52;;;;;;;37.67;14.20;;;5.40;92.20;;;;;;5114014;28;20189;-86
2024/03/23 05:45:19;;;;;;;30.50;13.50;;;5.50;92.20;;;;;;5114440;28;20209;-86
2024/03/23 05:47:44;;;;;;;37.83;16.27;;;5.40;92.20;;;;;;5114215;28;20177;-86
2024/03/23 05:50:12;;;;;;;39.53;13.53;;;5.50;92.30;;;;;;5115251;28;20170;-86
2024/03/23 05:52:38;;;;;;;31.83;14.70;;;5.50;92.30;;;;;;5115279;28;20185;-86
2024/03/23 05:55:05;;;;;;;39.90;15.77;;;5.50;92.20;;;;;;5115477;28;20170;-86
2024/03/23 05:57:30;;;;;;;32.53;14.30;;;5.50;92.20;;;;;;5115459;28;20158;-88
2024/03/23 05:59:56;;;;;;;36.27;14.07;;;5.40;92.20;;;;;;5116097;28;20303;-86
2024/03/23 06:02:22;;;;;;;29.00;12.87;;;5.50;92.20;;;;;;5115136;28;20598;-87
2024/03/23 06:04:48;;;;;;;34.80;14.00;;;5.40;92.20;;;;;;5114174;28;20174;-87
2024/03/23 06:07:14;;;;;;;40.90;14.87;;;5.40;92.30;;;;;;5113836;28;20277;-86
2024/03/23 06:09:41;;;;;;;44.23;14.27;;;5.30;92.30;;;;;;5113905;28;20203;-86
2024/03/23 06:12:06;;;;;;;27.87;13.37;;;5.40;92.30;;;;;;5113997;28;20213;-86
2024/03/23 06:14:32;;;;;;;32.97;13.30;;;5.30;92.30;;;;;;5115325;28;20250;-88
2024/03/23 06:17:02;;;;;;;38.77;15.00;;;5.30;92.40;;;;;;5115580;28;20169;-87
2024/03/23 06:19:27;;;;;;;37.17;13.17;;;5.30;92.30;;;;;;5113693;28;20174;-86
2024/03/23 06:21:56;;;;;;;38.17;14.43;;;5.30;92.40;;;;;;5115116;28;20254;-86
2024/03/23 06:24:25;;;;;;;32.30;13.93;;;5.30;92.40;;;;;;5115356;28;20224;-87
2024/03/23 06:26:50;;;;;;;39.47;15.13;;;5.30;92.40;;;;;;5113752;28;20181;-86
2024/03/23 06:29:16;;;;;;;41.20;13.93;;;5.30;92.40;;;;;;5115137;28;20575;-87
2024/03/23 06:31:41;;;;;;;37.00;10.67;;;5.30;92.40;;;;;;5113518;28;20237;-87
2024/03/23 06:34:07;;;;;;;30.13;9.97;;;5.30;92.40;;;;;;5115176;28;20257;-88
2024/03/23 06:36:32;;;;;;;34.40;11.70;;;5.30;92.40;;;;;;5112960;28;20174;-89
2024/03/23 06:38:58;;;;;;;26.43;9.17;;;5.30;92.40;;;;;;5115460;27;20170;-86
2024/03/23 06:41:24;;;;;;;30.40;8.93;;;5.30;92.40;;;;;;5113513;28;20199;-85
2024/03/23 06:43:50;;;;;;;23.93;10.47;;;5.30;92.50;;;;;;5113542;28;20200;-87
2024/03/23 06:46:15;;;;;;;26.93;9.57;;;5.30;92.50;;;;;;5113798;28;20650;-89
2024/03/23 06:48:41;;;;;;;24.97;9.00;;;5.30;92.50;;;;;;5116140;28;20233;-86
2024/03/23 06:51:06;;;;;;;29.87;9.00;;;5.30;92.40;;;;;;5117371;28;20201;-86
2024/03/23 06:53:32;;;;;;;37.17;9.87;;;5.30;92.40;;;;;;5117492;28;20222;-88
2024/03/23 06:55:58;;;;;;;23.67;8.50;;;5.30;92.40;;;;;;5119309;28;20222;-87
2024/03/23 06:58:25;;;;;;;35.67;10.60;;;5.40;92.40;;;;;;5119552;28;20584;-87
2024/03/23 07:00:51;;;;;;;39.07;10.37;;;5.40;92.40;;;;;;5117826;28;20198;-86
2024/03/23 07:03:21;;;;;;;32.03;10.03;;;5.50;92.40;;;;;;5118124;28;20205;-87
2024/03/23 07:05:47;;;;;;;34.77;11.43;;;5.60;92.40;;;;;;5117197;28;20262;-87
2024/03/23 07:08:12;;;;;;;29.67;9.47;;;5.80;92.30;;;;;;5117144;28;20205;-89
2024/03/23 07:10:41;;;;;;;30.33;10.03;;;5.90;92.10;;;;;;5118595;28;20747;-88
2024/03/23 07:13:07;;;;;;;38.80;11.40;;;6.00;92.00;;;;;;5118794;28;20224;-86
2024/03/23 07:15:33;;;;;;;35.27;10.67;;;6.00;91.70;;;;;;5118811;28;20166;-87
2024/03/23 07:17:58;;;;;;;23.17;9.47;;;6.00;91.40;;;;;;5117207;28;20181;-87
2024/03/23 07:20:24;;;;;;;22.43;9.50;;;6.10;91.20;;;;;;5117034;28;20177;-87
2024/03/23 07:22:49;;;;;;;26.50;9.67;;;6.20;91.00;;;;;;5116862;28;20200;-86
2024/03/23 07:25:15;;;;;;;29.10;9.57;;;6.20;90.70;;;;;;5117717;28;20177;-86
2024/03/23 07:27:40;;;;;;;38.03;10.93;;;6.20;90.70;;;;;;5118476;28;20170;-86
2024/03/23 07:30:08;;;;;;;30.43;9.83;;;6.30;90.80;;;;;;5117214;28;20170;-88
2024/03/23 07:32:34;;;;;;;38.73;10.83;;;6.40;91.10;;;;;;5119101;28;20182;-86
2024/03/23 07:35:00;;;;;;;19.77;9.80;;;6.40;90.70;;;;;;5117220;28;20552;-87
2024/03/23 07:37:25;;;;;;;36.97;11.17;;;6.50;90.40;;;;;;5117045;28;20599;-88
2024/03/23 07:39:51;;;;;;;33.13;11.07;;;6.70;90.80;;;;;;5118405;28;20550;-87
2024/03/23 07:42:16;;;;;;;31.30;11.43;;;6.80;90.30;;;;;;5118328;28;20190;-87
2024/03/23 07:44:42;;;;;;;28.80;14.47;;;6.80;90.20;;;;;;5118293;28;20649;-87
2024/03/23 07:47:07;;;;;;;28.37;14.60;;;6.90;89.80;;;;;;5116838;28;20177;-87
2024/03/23 07:49:33;;;;;;;38.57;16.60;;;6.90;89.40;;;;;;5118272;28;20215;-87
2024/03/23 07:51:58;;;;;;;23.17;14.07;;;6.90;89.20;;;;;;5116568;28;20237;-88
2024/03/23 07:54:24;;;;;;;30.43;15.13;;;7.00;89.30;;;;;;5116657;28;20178;-87
2024/03/23 07:56:49;;;;;;;26.93;16.60;;;6.90;88.50;;;;;;5116957;28;20604;-87
2024/03/23 07:59:15;;;;;;;27.80;13.73;;;7.10;88.90;;;;;;5116915;28;20214;-87
2024/03/23 08:01:40;;;;;;;31.47;15.17;;;7.20;88.60;;;;;;5116704;28;20197;-87
2024/03/23 08:04:06;;;;;;;37.07;15.57;;;7.20;88.00;;;;;;5116688;28;20170;-87
2024/03/23 08:06:32;;;;;;;30.27;15.70;;;7.30;88.30;;;;;;5116485;28;20194;-87
2024/03/23 08:09:00;;;;;;;30.37;16.17;;;7.30;88.20;;;;;;5117841;28;20181;-85
2024/03/23 08:11:31;;;;;;;30.73;14.73;;;7.40;87.80;;;;;;5116124;28;20223;-86
2024/03/23 08:13:57;;;;;;;25.20;16.23;;;7.60;88.40;;;;;;5118048;28;20299;-86
2024/03/23 08:16:23;;;;;;;30.77;17.50;;;7.60;87.50;;;;;;5118161;28;20202;-86
2024/03/23 08:18:51;;;;;;;28.13;16.57;;;7.50;87.70;;;;;;5117848;28;20173;-88
2024/03/23 08:21:17;;;;;;;22.83;17.57;;;7.60;87.00;;;;;;5117842;28;20208;-87
2024/03/23 08:23:42;;;;;;;27.77;17.13;;;7.60;87.40;;;;;;5116464;28;20173;-87
2024/03/23 08:26:12;;;;;;;29.73;19.30;;;7.80;87.50;;;;;;5116218;28;20178;-87
2024/03/23 08:28:39;;;;;;;31.17;19.30;;;7.70;86.20;;;;;;5117754;28;20626;-86
2024/03/23 08:31:06;;;;;;;29.43;17.33;;;7.50;86.40;;;;;;5116082;28;20201;-87
2024/03/23 08:33:32;;;;;;;29.40;18.17;;;7.80;87.30;;;;;;5117320;28;20714;-86
2024/03/23 08:36:00;;;;;;;26.27;16.53;;;7.90;86.40;;;;;;5117233;28;20166;-86
2024/03/23 08:38:26;;;;;;;23.13;16.20;;;8.00;85.80;;;;;;5117390;28;20170;-86
2024/03/23 08:41:08;;;;;;;30.17;15.67;;;8.30;87.10;;;;;;5117279;28;20730;-87
2024/03/23 08:43:39;;;;;;;23.97;17.63;;;8.20;85.70;;;;;;5117302;28;20173;-86
2024/03/23 08:46:15;;;;;;;25.87;17.60;;;8.20;85.30;;;;;;5116492;28;20174;-87
2024/03/23 08:48:46;;;;;;;25.93;16.93;;;8.30;85.20;;;;;;5117893;28;20219;-87
2024/03/23 08:51:13;;;;;;;28.27;20.97;;;8.40;84.00;;;;;;5116840;28;20711;-86
2024/03/23 08:53:39;;;;;;;27.13;20.13;;;8.40;82.90;;;;;;5115455;28;20265;-86
2024/03/23 08:56:06;;;;;;;26.47;18.67;;;8.30;82.30;;;;;;5115509;28;20198;-87
2024/03/23 08:58:32;;;;;;;33.27;18.33;;;8.40;83.90;;;;;;5117817;28;20186;-87
2024/03/23 09:01:11;;;;;;;30.77;21.47;;;8.30;82.70;;;;;;5115749;28;20669;-85
2024/03/23 09:03:37;;;;;;;28.97;23.10;;;8.00;82.50;;;;;;5115624;28;20173;-89
2024/03/23 09:06:07;;;;;;;27.53;22.57;;;7.80;82.00;;;;;;5116774;28;20656;-89
2024/03/23 09:08:34;;;;;;;33.17;20.47;;;8.10;82.50;;;;;;5115483;28;20257;-86
2024/03/23 09:11:05;;;;;;;27.90;20.03;;;8.20;82.60;;;;;;5114819;28;20202;-87
2024/03/23 09:13:32;;;;;;;26.97;19.17;;;8.30;82.50;;;;;;5115391;28;20287;-87
2024/03/23 09:15:57;;;;;;;29.00;22.90;;;8.20;82.10;;;;;;5116843;28;20167;-88
2024/03/23 09:18:23;;;;;;;32.10;24.33;;;8.10;82.20;;;;;;5116790;28;20179;-87
2024/03/23 09:20:49;;;;;;;27.17;23.93;;;8.20;82.80;;;;;;5115403;28;20685;-87
2024/03/23 09:23:14;;;;;;;23.63;17.23;;;8.00;81.80;;;;;;5115130;28;20197;-87
2024/03/23 09:25:40;;;;;;;28.13;16.60;;;8.10;82.10;;;;;;5116314;28;20202;-87
2024/03/23 09:28:08;;;;;;;23.43;16.20;;;8.00;82.30;;;;;;5116632;28;20170;-86
2024/03/23 09:30:34;;;;;;;22.60;15.90;;;8.00;82.30;;;;;;5116712;28;20685;-88
2024/03/23 09:33:00;;;;;;;21.93;16.37;;;8.30;82.10;;;;;;5116817;28;20219;-87
2024/03/23 09:35:26;;;;;;;27.33;19.53;;;8.30;81.50;;;;;;5116665;28;20174;-85
2024/03/23 09:37:52;;;;;;;29.00;17.33;;;8.30;81.60;;;;;;5115055;28;20171;-87
2024/03/23 09:40:18;;;;;;;22.93;13.20;;;8.60;81.10;;;;;;5115220;28;20257;-87
2024/03/23 09:42:50;;;;;;;16.93;13.80;;;9.00;80.10;;;;;;5116433;28;20185;-87
2024/03/23 09:45:26;;;;;;;21.53;15.50;;;9.10;77.50;;;;;;5116327;28;20161;-89
2024/03/23 09:47:52;;;;;;;25.90;15.13;;;8.60;76.60;;;;;;5115574;28;20537;-87
2024/03/23 09:50:18;;;;;;;22.13;15.20;;;8.80;78.30;;;;;;5116251;28;20170;-86
2024/03/23 09:52:46;;;;;;;24.93;14.83;;;8.90;77.50;;;;;;5115989;28;20201;-86
2024/03/23 09:55:12;;;;;;;18.90;14.47;;;9.20;78.80;;;;;;5115655;28;20257;-87
2024/03/23 09:57:37;;;;;;;21.10;15.27;;;8.90;77.50;;;;;;5114993;28;20226;-87
2024/03/23 10:00:03;;;;;;;20.43;15.93;;;8.70;78.20;;;;;;5114478;28;20711;-87
2024/03/23 10:02:29;;;;;;;20.00;15.90;;;8.60;76.90;;;;;;5114333;28;20202;-88
2024/03/23 10:04:55;;;;;;;20.43;17.20;;;8.90;77.90;;;;;;5115185;28;20184;-87
2024/03/23 10:07:22;;;;;;;18.67;16.17;;;9.30;74.50;;;;;;5114500;28;20192;-87
2024/03/23 10:09:48;;;;;;;22.03;17.43;;;9.30;73.70;;;;;;5116045;28;20231;-87
2024/03/23 10:12:16;;;;;;;19.27;17.07;;;8.90;72.00;;;;;;5115724;28;20229;-87
2024/03/23 10:14:42;;;;;;;20.03;16.30;;;8.50;71.60;;;;;;5115520;28;20231;-87
2024/03/23 10:17:20;;;;;;;21.03;16.17;;;8.60;73.10;;;;;;5114401;28;20173;-88
2024/03/23 10:19:49;;;;;;;27.03;18.17;;;8.50;74.00;;;;;;5115661;28;20173;-85
2024/03/23 10:22:18;;;;;;;19.87;17.83;;;8.40;73.80;;;;;;5114199;28;20193;-89
2024/03/23 10:24:43;;;;;;;18.97;17.13;;;8.40;73.70;;;;;;5113383;28;20591;-87
2024/03/23 10:27:09;;;;;;;17.27;15.50;;;8.30;73.50;;;;;;5116010;28;20178;-88
2024/03/23 10:29:35;;;;;;;23.63;17.50;;;8.50;74.30;;;;;;5114377;28;20220;-87
2024/03/23 10:32:16;;;;;;;19.53;17.50;;;8.50;72.90;;;;;;5115353;28;20208;-88
2024/03/23 10:34:43;;;;;;;18.43;16.60;;;8.70;72.70;;;;;;5115407;28;20158;-87
2024/03/23 10:37:09;;;;;;;18.97;17.03;;;9.20;72.90;;;;;;5115849;28;20661;-87
2024/03/23 10:39:36;;;;;;;20.47;16.03;;;9.20;71.00;;;;;;5114153;28;20711;-86
2024/03/23 10:42:03;;;;;;;18.63;16.17;;;9.70;72.40;;;;;;5116047;28;20246;-88
2024/03/23 10:44:30;;;;;;;19.83;17.77;;;10.00;72.10;;;;;;5115772;28;20185;-86
2024/03/23 10:47:00;;;;;;;19.07;17.13;;;9.70;69.30;;;;;;5114527;28;20558;-87
2024/03/23 10:49:32;;;;;;;19.70;17.73;;;9.50;71.00;;;;;;5115821;28;20166;-86
2024/03/23 10:52:04;;;;;;;18.67;16.50;;;9.20;71.30;;;;;;5114597;28;20205;-87
2024/03/23 10:54:31;;;;;;;16.50;14.77;;;9.10;72.30;;;;;;5113406;28;20188;-88
2024/03/23 10:57:10;;;;;;;18.00;15.80;;;9.60;74.00;;;;;;5116228;28;20205;-87
2024/03/23 10:59:38;;;;;;;18.67;14.90;;;9.80;70.30;;;;;;5115022;28;20196;-88
2024/03/23 11:02:03;;;;;;;19.90;16.13;;;10.20;72.10;;;;;;5115715;28;20219;-87
2024/03/23 11:04:38;;;;;;;20.03;17.37;;;10.50;71.10;;;;;;5114620;28;20182;-87
2024/03/23 11:07:24;;;;;;;21.50;18.67;;;10.80;71.00;;;;;;5116112;28;20193;-88
2024/03/23 11:09:53;;;;;;;20.27;18.47;;;10.30;69.90;;;;;;5115905;28;20194;-87
2024/03/23 11:12:25;;;;;;;19.87;18.37;;;10.00;68.80;;;;;;5115568;28;20592;-86
2024/03/23 11:15:04;;;;;;;19.23;17.83;;;9.50;68.40;;;;;;5114170;28;20195;-86
2024/03/23 11:17:30;;;;;;;19.80;18.30;;;9.50;70.50;;;;;;5114657;28;20601;-87
2024/03/23 11:20:00;;;;;;;19.00;17.20;;;9.60;70.60;;;;;;5116189;28;20181;-87
2024/03/23 11:22:38;;;;;;;18.97;17.27;;;9.70;72.70;;;;;;5115130;28;20197;-87
2024/03/23 11:25:12;;;;;;;18.73;16.30;;;9.50;73.30;;;;;;5113842;28;20174;-86
2024/03/23 11:27:37;;;;;;;18.10;16.73;;;9.30;74.30;;;;;;5114454;28;20159;-90
2024/03/23 11:30:19;;;;;;;16.90;15.70;;;8.40;75.10;;;;;;5113815;28;20174;-86
2024/03/23 11:32:46;;;;;;;14.63;13.33;;;7.10;78.50;;;;;;5113395;28;20681;-93
2024/03/23 11:35:37;;;;;;;14.70;12.70;;;6.90;80.80;;;;;;5114131;28;20265;-90
2024/03/23 11:38:10;;;;;;;12.10;11.20;;;6.50;82.40;;;;;;5118048;28;20162;-87
2024/03/23 11:40:38;;;;;;;11.40;10.60;;;6.50;82.90;;;;;;5116737;28;20180;-88
2024/03/23 11:43:05;;;;;;;10.13;9.33;;;6.40;82.50;;;;;;5117757;28;20197;-89
2024/03/23 11:45:41;;;;;;;10.00;9.07;;;6.70;83.50;;;;;;5117773;28;20166;-89
2024/03/23 11:48:09;;;;;;;11.90;10.17;;;6.70;83.10;;;;;;5117571;28;20145;-88
2024/03/23 11:50:40;;;;;;;14.13;12.87;;;6.80;82.60;;;;;;5117611;28;20198;-86
2024/03/23 11:53:07;;;;;;;13.83;12.77;;;6.90;82.40;;;;;;5118588;28;20692;-86
2024/03/23 11:55:49;;;;;;;15.73;14.23;;;7.60;82.50;;;;;;5120271;28;20526;-88
2024/03/23 11:58:25;;;;;;;14.83;13.63;;;8.00;79.50;;;;;;5120109;28;20161;-86
2024/03/23 12:01:04;;;;;;;15.50;14.00;;;8.60;79.80;;;;;;5117687;27;20165;-86
2024/03/23 12:03:33;;;;;;;17.87;16.07;;;8.90;77.80;;;;;;5119813;28;20154;-87
2024/03/23 12:06:01;;;;;;;18.87;17.27;;;9.30;76.90;;;;;;5119552;28;20264;-87
2024/03/23 12:08:35;;;;;;;16.03;14.83;;;8.90;76.90;;;;;;5118365;28;20170;-85
2024/03/23 12:11:16;;;;;;;19.13;17.60;;;8.30;77.30;;;;;;5117242;28;20229;-88
2024/03/23 12:13:45;;;;;;;18.57;17.37;;;7.30;76.90;;;;;;5117483;28;20170;-86
2024/03/23 12:16:20;;;;;;;18.07;16.63;;;7.10;77.00;;;;;;5118105;28;20169;-86
2024/03/23 12:18:47;;;;;;;16.80;15.70;;;7.00;79.00;;;;;;5117506;28;20162;-86
2024/03/23 12:21:13;;;;;;;18.53;16.97;;;6.80;79.10;;;;;;5116156;28;20188;-86
2024/03/23 12:23:42;;;;;;;18.20;16.57;;;6.80;78.40;;;;;;5117043;28;20174;-86
2024/03/23 12:26:08;;;;;;;17.87;16.80;;;6.80;78.60;;;;;;5116111;28;20257;-88
2024/03/23 12:28:34;;;;;;;20.43;18.83;;;6.80;77.30;;;;;;5116093;28;20260;-87
2024/03/23 12:30:59;;;;;;;19.60;18.30;;;7.10;74.00;;;;;;5116370;28;20569;-87
2024/03/23 12:33:25;;;;;;;19.10;17.77;;;7.80;74.70;;;;;;5116957;28;20189;-86
2024/03/23 12:35:51;;;;;;;21.23;19.73;;;8.50;73.40;;;;;;5116873;28;20167;-86
2024/03/23 12:38:17;;;;;;;20.80;19.27;;;8.30;72.40;;;;;;5116088;28;20170;-86